Time;durP1;ratioP1;P1;durP2;ratioP2;P2;SDS_P1;SDS_P2;PMS_P1;PMS_P2;Temp;Humidity;BMP_temperature;BMP_pressure;BME280_temperature;BME280_humidity;BME280_pressure;Samples;Min_cycle;Max_cycle;Signal;HPM_P1;HPM_P2
2023/06/11 00:01:20;;;;;;;12.65;11.38;;;;;;;21.50;66.78;100679.19;5014305;28;20208;-78
2023/06/11 00:03:52;;;;;;;12.45;11.18;;;;;;;21.46;67.03;100676.16;5027504;28;20118;-82
2023/06/11 00:06:21;;;;;;;15.48;11.75;;;;;;;21.42;67.03;100679.50;5020044;28;20049;-82
2023/06/11 00:08:48;;;;;;;12.57;11.30;;;;;;;21.35;67.44;100684.09;5026224;28;20049;-82
2023/06/11 00:11:14;;;;;;;14.50;11.52;;;;;;;21.36;67.73;100685.72;5028365;28;20145;-82
2023/06/11 00:13:41;;;;;;;13.10;11.50;;;;;;;21.34;67.59;100683.28;5018486;28;20053;-83
2023/06/11 00:16:12;;;;;;;12.90;11.60;;;;;;;21.34;67.84;100688.59;5009874;28;20105;-83
2023/06/11 00:18:40;;;;;;;13.32;12.02;;;;;;;21.29;67.83;100685.00;5007433;28;20072;-80
2023/06/11 00:21:07;;;;;;;14.65;12.55;;;;;;;21.30;67.92;100681.28;5008185;28;20061;-82
2023/06/11 00:23:35;;;;;;;12.90;11.40;;;;;;;21.27;68.09;100679.91;4998547;28;20073;-81
2023/06/11 00:26:01;;;;;;;14.93;11.70;;;;;;;21.27;68.10;100687.88;5019550;28;20120;-82
2023/06/11 00:28:28;;;;;;;12.32;11.07;;;;;;;21.20;68.21;100679.16;5009960;28;20543;-81
2023/06/11 00:30:55;;;;;;;12.95;11.57;;;;;;;21.22;68.02;100686.94;5014671;28;20070;-82
2023/06/11 00:33:23;;;;;;;12.10;10.90;;;;;;;21.28;67.80;100678.84;5016272;28;20047;-82
2023/06/11 00:35:49;;;;;;;14.68;11.68;;;;;;;21.22;67.94;100678.97;5020063;28;20114;-82
2023/06/11 00:38:16;;;;;;;12.45;11.20;;;;;;;21.13;68.43;100681.09;5021260;28;20114;-82
2023/06/11 00:40:43;;;;;;;13.30;11.40;;;;;;;21.07;68.65;100679.31;5020679;28;20049;-82
2023/06/11 00:43:09;;;;;;;13.48;11.40;;;;;;;21.00;69.21;100674.06;5021032;28;20504;-80
2023/06/11 00:45:37;;;;;;;15.48;11.70;;;;;;;20.99;69.40;100674.31;5018081;28;20069;-81
2023/06/11 00:48:04;;;;;;;13.30;11.35;;;;;;;20.92;70.35;100684.19;5021329;28;20054;-81
2023/06/11 00:50:34;;;;;;;12.80;11.50;;;;;;;20.82;70.71;100688.19;5021320;28;20064;-82
2023/06/11 00:53:01;;;;;;;14.70;12.27;;;;;;;20.76;71.07;100685.63;5021566;28;20077;-82
2023/06/11 00:55:28;;;;;;;13.93;12.52;;;;;;;20.63;71.33;100683.09;5017544;28;20066;-82
2023/06/11 00:57:55;;;;;;;14.25;12.70;;;;;;;20.52;72.03;100687.28;5011936;28;20136;-81
2023/06/11 01:00:21;;;;;;;14.27;12.73;;;;;;;20.51;72.06;100688.31;5013316;28;20054;-82
2023/06/11 01:02:57;;;;;;;13.90;12.52;;;;;;;20.47;72.42;100689.78;5021873;28;20348;-80
2023/06/11 01:05:26;;;;;;;13.10;11.80;;;;;;;20.46;72.41;100685.50;5021335;28;20054;-81
2023/06/11 01:07:55;;;;;;;12.85;11.55;;;;;;;20.39;73.01;100688.22;5020425;28;20060;-82
2023/06/11 01:10:23;;;;;;;14.15;12.65;;;;;;;20.36;73.01;100699.25;5020338;28;20046;-81
2023/06/11 01:12:50;;;;;;;13.63;11.93;;;;;;;20.35;73.21;100687.00;5019072;28;20416;-79
2023/06/11 01:15:17;;;;;;;16.13;12.65;;;;;;;20.26;73.37;100690.19;5017666;28;20111;-81
2023/06/11 01:17:52;;;;;;;13.63;12.32;;;;;;;20.26;73.20;100685.69;5012559;28;20058;-83
2023/06/11 01:20:28;;;;;;;13.55;12.15;;;;;;;20.20;73.35;100690.03;5021028;28;20454;-82
2023/06/11 01:23:22;;;;;;;13.52;12.07;;;;;;;20.14;73.24;100687.41;5021057;28;20064;-83
2023/06/11 01:26:04;;;;;;;15.85;12.52;;;;;;;20.14;73.48;100693.53;5023118;28;20446;-82
2023/06/11 01:28:36;;;;;;;13.30;12.00;;;;;;;20.09;73.48;100695.22;5020920;28;20567;-83
2023/06/11 01:31:12;;;;;;;15.02;11.98;;;;;;;20.05;73.71;100689.53;5012064;28;20084;-82
2023/06/11 01:33:39;;;;;;;13.82;11.63;;;;;;;20.05;73.04;100692.19;5014399;28;20110;-83
2023/06/11 01:36:07;;;;;;;13.98;11.38;;;;;;;20.12;72.94;100698.25;5015758;28;20101;-81
2023/06/11 01:38:41;;;;;;;12.57;11.27;;;;;;;20.14;72.87;100698.03;5012023;28;20457;-82
2023/06/11 01:41:08;;;;;;;14.13;11.68;;;;;;;20.09;73.29;100692.56;5014422;28;20085;-81
2023/06/11 01:43:36;;;;;;;12.90;11.68;;;;;;;20.02;73.01;100703.25;5013153;28;20129;-81
2023/06/11 01:46:03;;;;;;;12.95;11.25;;;;;;;20.04;72.91;100701.19;5013088;28;20120;-81
2023/06/11 01:48:30;;;;;;;12.55;11.20;;;;;;;20.14;72.42;100696.19;5022141;28;20133;-81
2023/06/11 01:50:56;;;;;;;11.88;10.77;;;;;;;20.28;71.63;100704.06;5011590;28;20113;-80
2023/06/11 01:53:23;;;;;;;16.83;10.98;;;;;;;20.32;71.48;100699.94;5013981;28;20461;-81
2023/06/11 01:55:50;;;;;;;14.73;10.75;;;;;;;20.38;70.95;100696.41;5016728;28;20124;-80
2023/06/11 01:58:17;;;;;;;12.48;11.27;;;;;;;20.39;70.94;100703.38;5017375;28;20049;-79
2023/06/11 02:00:47;;;;;;;13.45;11.25;;;;;;;20.40;70.87;100702.34;5002626;28;20046;-82
2023/06/11 02:03:15;;;;;;;13.45;10.57;;;;;;;20.46;70.68;100712.09;5018776;28;20136;-80
2023/06/11 02:05:42;;;;;;;13.68;10.68;;;;;;;20.49;70.44;100704.50;5019523;28;20104;-82
2023/06/11 02:08:08;;;;;;;13.98;10.82;;;;;;;20.52;70.27;100711.22;5019068;28;20081;-81
2023/06/11 02:10:35;;;;;;;11.70;10.60;;;;;;;20.52;70.32;100705.91;5012349;28;20054;-82
2023/06/11 02:13:02;;;;;;;13.25;11.15;;;;;;;20.49;70.41;100706.34;5018372;28;20112;-81
2023/06/11 02:15:28;;;;;;;12.98;11.40;;;;;;;20.42;70.62;100705.59;5016735;28;20096;-82
2023/06/11 02:17:56;;;;;;;12.68;10.68;;;;;;;20.37;70.80;100713.38;5010376;28;20129;-81
2023/06/11 02:20:23;;;;;;;12.20;10.90;;;;;;;20.31;70.98;100712.41;5019550;28;20144;-83
2023/06/11 02:22:49;;;;;;;12.48;11.27;;;;;;;20.20;71.39;100708.63;5020961;28;20114;-83
2023/06/11 02:25:16;;;;;;;13.25;10.73;;;;;;;20.11;71.89;100707.25;5016773;28;20077;-82
2023/06/11 02:27:43;;;;;;;12.13;10.88;;;;;;;20.06;72.12;100707.09;5011411;28;20121;-81
2023/06/11 02:30:10;;;;;;;13.13;11.60;;;;;;;19.99;73.24;100708.16;5009405;28;20069;-80
2023/06/11 02:32:37;;;;;;;13.63;11.68;;;;;;;19.86;73.85;100709.88;5014597;28;20077;-81
2023/06/11 02:35:06;;;;;;;12.70;11.35;;;;;;;19.80;73.93;100707.28;5018668;28;20142;-81
2023/06/11 02:37:32;;;;;;;12.90;11.40;;;;;;;19.73;74.06;100712.66;5018180;28;20137;-81
2023/06/11 02:40:01;;;;;;;12.20;11.00;;;;;;;19.66;74.69;100716.38;5010042;28;20149;-81
2023/06/11 02:42:28;;;;;;;13.23;11.70;;;;;;;19.59;74.77;100715.59;5003427;28;20070;-81
2023/06/11 02:44:55;;;;;;;15.50;11.77;;;;;;;19.57;75.22;100713.16;5015932;28;20057;-81
2023/06/11 02:47:21;;;;;;;12.85;11.55;;;;;;;19.53;75.32;100711.94;5016446;28;20056;-80
2023/06/11 02:49:48;;;;;;;12.82;11.55;;;;;;;19.39;75.30;100713.81;5002240;28;20129;-82
2023/06/11 02:52:16;;;;;;;13.05;11.75;;;;;;;19.30;75.72;100707.13;5014060;28;20216;-78
2023/06/11 02:54:42;;;;;;;16.10;11.95;;;;;;;19.22;76.12;100713.50;5014615;28;20042;-81
2023/06/11 02:57:09;;;;;;;13.75;11.48;;;;;;;19.25;76.09;100714.91;5015882;28;20104;-81
2023/06/11 02:59:36;;;;;;;13.18;11.88;;;;;;;19.20;76.12;100712.06;5014054;28;20161;-81
2023/06/11 03:02:03;;;;;;;13.52;12.00;;;;;;;19.19;76.33;100715.75;5013583;28;20113;-81
2023/06/11 03:04:29;;;;;;;14.38;11.88;;;;;;;19.13;76.45;100713.94;5019713;28;20132;-82
2023/06/11 03:06:56;;;;;;;13.90;11.57;;;;;;;19.13;76.36;100716.59;5015336;28;20085;-82
2023/06/11 03:09:24;;;;;;;14.63;11.32;;;;;;;19.17;76.38;100717.81;5010538;28;20571;-82
2023/06/11 03:11:51;;;;;;;13.82;11.90;;;;;;;19.13;76.38;100719.25;5016610;28;20057;-80
2023/06/11 03:14:20;;;;;;;17.02;11.00;;;;;;;19.15;76.47;100715.34;5019841;28;20077;-80
2023/06/11 03:16:47;;;;;;;12.68;11.48;;;;;;;19.17;76.56;100713.31;5008839;28;20134;-80
2023/06/11 03:19:14;;;;;;;14.15;11.88;;;;;;;19.16;76.82;100721.47;5009196;28;20049;-81
2023/06/11 03:21:40;;;;;;;15.95;11.63;;;;;;;19.20;76.80;100722.69;5019996;28;20109;-79
2023/06/11 03:24:07;;;;;;;13.75;12.30;;;;;;;19.20;76.47;100728.81;5024803;28;20075;-79
2023/06/11 03:26:35;;;;;;;15.20;11.40;;;;;;;19.16;76.71;100735.56;5018317;28;20125;-81
2023/06/11 03:29:03;;;;;;;13.68;11.75;;;;;;;19.17;77.21;100739.00;5015608;28;20109;-81
2023/06/11 03:31:30;;;;;;;13.43;12.13;;;;;;;19.15;77.20;100739.22;5012185;28;20054;-81
2023/06/11 03:33:56;;;;;;;15.50;12.40;;;;;;;19.14;76.83;100736.78;5017640;28;20129;-80
2023/06/11 03:36:23;;;;;;;14.98;12.07;;;;;;;19.00;77.24;100732.53;5015673;28;20050;-80
2023/06/11 03:38:49;;;;;;;12.65;11.40;;;;;;;19.06;77.30;100735.16;5011423;28;20070;-80
2023/06/11 03:41:16;;;;;;;17.70;11.85;;;;;;;19.09;77.26;100733.94;5024834;28;20049;-80
2023/06/11 03:43:44;;;;;;;12.55;11.15;;;;;;;19.08;77.28;100737.63;5023142;28;20089;-80
2023/06/11 03:46:11;;;;;;;13.55;12.15;;;;;;;19.07;77.42;100743.94;5019018;28;20050;-79
2023/06/11 03:48:37;;;;;;;15.73;11.98;;;;;;;19.07;77.42;100751.91;5024424;28;20061;-80
2023/06/11 03:51:04;;;;;;;13.30;12.00;;;;;;;19.05;77.57;100735.38;5009081;28;20046;-79
2023/06/11 03:53:32;;;;;;;13.82;11.82;;;;;;;19.12;77.28;100744.13;5023395;28;20058;-80
2023/06/11 03:55:59;;;;;;;14.15;11.40;;;;;;;19.24;77.35;100747.78;5017763;28;20372;-80
2023/06/11 03:58:26;;;;;;;13.73;12.18;;;;;;;19.26;77.67;100744.91;5013205;28;20050;-80
2023/06/11 04:00:54;;;;;;;12.80;11.60;;;;;;;19.33;78.10;100748.34;5010053;28;20072;-81
2023/06/11 04:03:20;;;;;;;12.82;11.23;;;;;;;19.74;77.17;100747.97;5015915;28;20058;-81
2023/06/11 04:05:47;;;;;;;12.88;11.57;;;;;;;20.42;75.21;100754.25;5023193;28;20108;-81
2023/06/11 04:08:13;;;;;;;13.07;11.25;;;;;;;20.69;72.71;100748.69;5006870;28;20591;-81
2023/06/11 04:10:40;;;;;;;14.80;11.48;;;;;;;20.76;71.96;100746.78;5023149;28;20050;-81
2023/06/11 04:13:07;;;;;;;12.95;11.48;;;;;;;21.29;70.81;100747.03;5013092;28;20050;-80
2023/06/11 04:15:33;;;;;;;13.45;11.20;;;;;;;21.31;70.87;100746.78;5018398;28;20041;-81
2023/06/11 04:18:01;;;;;;;13.82;10.43;;;;;;;21.49;70.32;100736.94;5022542;28;20057;-80
2023/06/11 04:20:28;;;;;;;12.25;10.75;;;;;;;21.82;68.81;100748.97;5015510;28;20054;-81
2023/06/11 04:22:55;;;;;;;13.68;10.45;;;;;;;22.20;68.50;100751.31;5021595;28;20112;-82
2023/06/11 04:25:21;;;;;;;12.85;10.48;;;;;;;22.39;67.35;100744.84;5020460;28;20470;-81
2023/06/11 04:27:48;;;;;;;11.95;10.73;;;;;;;22.41;67.47;100747.28;5012549;28;20057;-80
2023/06/11 04:30:15;;;;;;;13.50;10.05;;;;;;;22.01;68.47;100753.25;5011329;28;20109;-82
2023/06/11 04:32:41;;;;;;;14.63;10.80;;;;;;;21.69;69.69;100751.84;5018696;28;20053;-82
2023/06/11 04:35:10;;;;;;;12.98;9.70;;;;;;;21.61;70.20;100752.97;5014951;28;20049;-82
2023/06/11 04:37:40;;;;;;;11.10;9.95;;;;;;;21.45;70.62;100745.59;5015910;28;20046;-80
2023/06/11 04:40:10;;;;;;;12.75;10.55;;;;;;;21.48;71.14;100758.47;5023099;28;20050;-81
2023/06/11 04:42:40;;;;;;;16.05;11.23;;;;;;;21.43;70.81;100753.81;5016712;28;20046;-79
2023/06/11 04:45:08;;;;;;;13.68;10.20;;;;;;;22.01;69.71;100761.25;5024991;28;20149;-81
2023/06/11 04:47:34;;;;;;;12.73;10.10;;;;;;;22.51;68.38;100753.66;5019604;28;20065;-82
2023/06/11 04:50:03;;;;;;;12.35;9.95;;;;;;;22.45;67.80;100751.09;5012824;28;20070;-78
2023/06/11 04:52:35;;;;;;;14.02;11.02;;;;;;;21.99;69.31;100763.28;5020464;28;20050;-82
2023/06/11 04:55:02;;;;;;;10.90;9.80;;;;;;;22.03;69.44;100763.69;5019889;28;20060;-80
2023/06/11 04:57:28;;;;;;;11.40;10.30;;;;;;;21.93;69.75;100763.38;5043398;22;20726;-76
2023/06/11 04:59:55;;;;;;;12.35;10.40;;;;;;;22.30;68.98;100762.22;5032131;28;20491;-77
2023/06/11 05:02:22;;;;;;;13.95;10.05;;;;;;;22.55;68.60;100762.00;5032983;28;20075;-77
2023/06/11 05:04:53;;;;;;;12.02;10.73;;;;;;;23.00;67.33;100754.22;5031481;28;20500;-78
2023/06/11 05:07:20;;;;;;;13.48;10.80;;;;;;;22.77;67.85;100763.03;5029759;28;20057;-78
2023/06/11 05:09:48;;;;;;;12.82;10.50;;;;;;;22.77;67.83;100759.56;5026760;28;20148;-79
2023/06/11 05:12:15;;;;;;;13.13;10.60;;;;;;;22.90;67.43;100759.34;5022845;28;20136;-77
2023/06/11 05:14:43;;;;;;;11.25;10.10;;;;;;;22.67;68.02;100760.16;5017059;28;20512;-78
2023/06/11 05:17:10;;;;;;;10.80;9.80;;;;;;;22.88;67.39;100756.09;5014861;28;20050;-77
2023/06/11 05:19:36;;;;;;;11.88;9.80;;;;;;;23.00;66.80;100756.09;5012289;28;20116;-78
2023/06/11 05:22:03;;;;;;;12.40;9.65;;;;;;;23.17;66.26;100756.97;5023061;28;20045;-79
2023/06/11 05:24:30;;;;;;;11.95;9.88;;;;;;;23.90;64.81;100766.94;5025495;28;20064;-78
2023/06/11 05:26:59;;;;;;;13.35;9.70;;;;;;;24.49;63.08;100762.06;5013607;28;20511;-79
2023/06/11 05:29:26;;;;;;;10.68;9.32;;;;;;;24.78;61.43;100755.53;5025116;28;20140;-77
2023/06/11 05:31:54;;;;;;;12.60;10.02;;;;;;;25.02;61.55;100769.53;5021667;28;20138;-78
2023/06/11 05:34:20;;;;;;;11.32;9.60;;;;;;;25.22;60.90;100763.63;5024500;28;20408;-77
2023/06/11 05:36:48;;;;;;;12.48;9.27;;;;;;;26.16;58.64;100770.50;5007740;28;20145;-78
2023/06/11 05:39:14;;;;;;;9.93;8.93;;;;;;;26.59;57.80;100778.34;5023634;28;20054;-78
2023/06/11 05:41:43;;;;;;;12.18;9.15;;;;;;;26.37;57.99;100770.44;5013100;28;20072;-79
2023/06/11 05:44:11;;;;;;;9.95;8.95;;;;;;;26.00;58.96;100781.06;5010052;28;20064;-78
2023/06/11 05:46:38;;;;;;;10.25;9.05;;;;;;;26.24;58.84;100780.75;5005677;28;20048;-79
2023/06/11 05:49:05;;;;;;;11.13;9.40;;;;;;;25.88;58.93;100776.97;5012547;28;20056;-78
2023/06/11 05:51:32;;;;;;;13.55;9.50;;;;;;;26.09;58.30;100774.19;5015915;28;20418;-78
2023/06/11 05:54:01;;;;;;;10.80;9.23;;;;;;;25.75;58.86;100780.84;5026971;28;20050;-78
2023/06/11 05:56:28;;;;;;;10.38;9.35;;;;;;;26.25;58.61;100788.53;5012391;28;20057;-77
2023/06/11 05:58:54;;;;;;;9.75;8.75;;;;;;;26.76;56.99;100779.00;5011696;28;20133;-76
2023/06/11 06:01:22;;;;;;;10.25;8.93;;;;;;;27.43;55.68;100778.25;5015602;28;20053;-78
2023/06/11 06:03:49;;;;;;;14.27;9.88;;;;;;;26.78;56.79;100784.94;5020252;28;20507;-76
2023/06/11 06:06:16;;;;;;;11.65;9.38;;;;;;;26.91;56.23;100782.84;5022758;28;20484;-78
2023/06/11 06:08:42;;;;;;;11.63;9.10;;;;;;;26.75;56.99;100785.44;5020178;28;20046;-78
2023/06/11 06:11:09;;;;;;;10.68;9.57;;;;;;;26.89;57.11;100793.03;5018224;28;20565;-76
2023/06/11 06:13:35;;;;;;;9.95;8.95;;;;;;;27.24;55.88;100785.19;5023402;28;20108;-78
2023/06/11 06:16:02;;;;;;;12.05;9.05;;;;;;;27.46;56.44;100786.84;5016631;28;20132;-75
2023/06/11 06:18:33;;;;;;;11.05;9.20;;;;;;;27.37;55.59;100784.69;5019870;28;20049;-77
2023/06/11 06:20:59;;;;;;;10.35;9.02;;;;;;;28.25;54.52;100779.25;5019680;28;20045;-78
2023/06/11 06:23:26;;;;;;;10.98;9.10;;;;;;;27.04;55.16;100785.09;5005439;28;20157;-76
2023/06/11 06:25:53;;;;;;;10.15;9.00;;;;;;;27.51;55.39;100784.19;5021808;28;20129;-74
2023/06/11 06:28:19;;;;;;;10.45;9.45;;;;;;;27.34;55.05;100784.41;5021059;28;20058;-77
2023/06/11 06:30:46;;;;;;;12.20;8.93;;;;;;;27.44;55.82;100796.00;5008983;28;20046;-77
2023/06/11 06:33:13;;;;;;;11.45;9.13;;;;;;;27.14;55.30;100785.13;5011290;28;20081;-77
2023/06/11 06:35:41;;;;;;;11.15;9.25;;;;;;;27.31;55.02;100783.06;5011542;28;20050;-77
2023/06/11 06:38:07;;;;;;;9.55;8.73;;;;;;;26.72;56.14;100788.66;5007725;28;20835;-77
2023/06/11 06:40:35;;;;;;;9.80;8.80;;;;;;;26.96;56.05;100781.00;5017765;28;20128;-77
2023/06/11 06:43:02;;;;;;;11.25;9.20;;;;;;;26.76;55.44;100773.63;5013229;28;20108;-77
2023/06/11 06:45:43;;;;;;;10.50;9.40;;;;;;;25.97;56.84;100781.59;5005651;28;20484;-77
2023/06/11 06:48:10;;;;;;;11.00;9.25;;;;;;;26.86;56.04;100777.47;5012766;28;20096;-77
2023/06/11 06:56:09;;;;;;;11.20;9.32;;;;;;;26.75;55.90;100777.41;5015285;28;20042;-80
2023/06/11 06:58:36;;;;;;;9.98;8.95;;;;;;;26.91;55.00;100785.53;5015549;28;20518;-80
2023/06/11 07:01:02;;;;;;;10.82;9.80;;;;;;;26.41;56.37;100792.19;5018183;28;20092;-81
2023/06/11 07:03:29;;;;;;;10.52;9.15;;;;;;;26.62;56.16;100796.63;5012922;28;20057;-81
2023/06/11 07:05:56;;;;;;;9.68;8.75;;;;;;;26.87;56.01;100795.19;5005372;28;20129;-81
2023/06/11 07:08:27;;;;;;;13.63;8.82;;;;;;;27.12;55.04;100803.38;5017750;28;20156;-82
2023/06/11 07:10:57;;;;;;;10.47;9.47;;;;;;;27.67;54.97;100788.56;5009063;28;20145;-82
2023/06/11 07:13:25;;;;;;;12.48;10.20;;;;;;;27.51;54.39;100781.50;5010391;28;20095;-82
2023/06/11 07:15:52;;;;;;;10.45;9.40;;;;;;;27.61;54.40;100795.00;5014460;28;20114;-80
2023/06/11 07:20:54;;;;;;;10.13;9.02;;;;;;;28.31;53.61;100812.34;5499893;22;20060;-79
2023/06/11 07:23:20;;;;;;;10.85;8.93;;;;;;;28.21;52.87;100780.84;5049668;28;20128;-77
2023/06/11 07:25:48;;;;;;;11.25;8.65;;;;;;;28.61;53.25;100809.63;5048702;28;20608;-77
2023/06/11 07:28:15;;;;;;;12.10;9.55;;;;;;;28.57;54.06;100805.06;5050382;28;20052;-77
2023/06/11 07:30:44;;;;;;;9.95;8.82;;;;;;;29.74;51.59;100799.28;5046511;28;20430;-78
2023/06/11 07:33:10;;;;;;;9.88;8.88;;;;;;;29.52;51.32;100803.19;5050768;28;20049;-77
2023/06/11 07:35:37;;;;;;;10.40;9.23;;;;;;;28.81;52.33;100810.69;5053757;28;20538;-78
2023/06/11 07:38:04;;;;;;;10.35;9.32;;;;;;;28.27;52.61;100803.19;5054677;28;20051;-78
2023/06/11 07:40:30;;;;;;;10.43;9.38;;;;;;;28.98;52.72;100808.50;5054787;28;20053;-78
2023/06/11 07:42:57;;;;;;;11.82;9.20;;;;;;;28.20;53.34;100798.03;5055066;28;20076;-78
2023/06/11 07:45:23;;;;;;;9.43;8.52;;;;;;;28.90;52.48;100809.03;5055203;28;20094;-78
2023/06/11 07:47:51;;;;;;;11.55;8.93;;;;;;;28.86;52.69;100799.91;5050222;28;20055;-77
2023/06/11 07:50:18;;;;;;;13.05;8.73;;;;;;;30.05;50.41;100795.31;5050614;28;20478;-78
2023/06/11 07:52:45;;;;;;;9.25;8.45;;;;;;;28.50;52.27;100802.63;5048324;28;20069;-77
2023/06/11 07:55:12;;;;;;;10.05;9.10;;;;;;;28.79;52.32;100794.78;5047360;28;20514;-77
2023/06/11 07:57:39;;;;;;;9.40;8.50;;;;;;;28.94;52.17;100796.66;5054701;28;20049;-78
2023/06/11 08:00:10;;;;;;;11.18;8.77;;;;;;;30.35;50.22;100805.03;5054671;28;20049;-77
2023/06/11 08:02:37;;;;;;;10.00;8.65;;;;;;;31.40;48.21;100798.00;5053921;28;20049;-78
2023/06/11 08:05:05;;;;;;;9.43;8.52;;;;;;;28.98;51.42;100792.31;5054934;28;20144;-78
2023/06/11 08:07:32;;;;;;;9.40;8.57;;;;;;;29.74;50.79;100799.28;5059552;28;20107;-82
2023/06/11 08:09:59;;;;;;;9.77;8.85;;;;;;;28.63;52.50;100791.31;5053205;28;20098;-80
2023/06/11 08:12:25;;;;;;;9.50;8.50;;;;;;;28.61;53.07;100792.66;5052902;28;20140;-80
2023/06/11 08:14:52;;;;;;;11.55;9.07;;;;;;;28.16;52.83;100786.22;5054164;28;20108;-80
2023/06/11 08:17:18;;;;;;;9.98;8.98;;;;;;;28.71;52.66;100790.75;5060491;28;20052;-80
2023/06/11 08:19:45;;;;;;;9.68;8.63;;;;;;;28.69;52.54;100781.34;5060411;28;20136;-81
2023/06/11 08:22:13;;;;;;;10.02;8.82;;;;;;;29.80;51.35;100793.56;5070014;28;20056;-80
2023/06/11 08:24:40;;;;;;;8.75;7.85;;;;;;;29.06;51.43;100779.09;5061681;28;20049;-80
2023/06/11 08:27:09;;;;;;;9.40;8.40;;;;;;;29.28;51.85;100786.03;5067445;28;20037;-81
2023/06/11 08:29:36;;;;;;;9.75;8.85;;;;;;;28.95;51.66;100765.94;5061908;28;20041;-79
2023/06/11 08:32:03;;;;;;;10.13;8.85;;;;;;;29.44;50.94;100778.69;5059921;28;20057;-79
2023/06/11 08:34:30;;;;;;;10.45;9.45;;;;;;;30.18;50.12;100772.28;5062081;28;20111;-79
2023/06/11 08:36:58;;;;;;;8.80;7.90;;;;;;;29.82;50.90;100775.22;5060507;28;20076;-80
2023/06/11 08:39:26;;;;;;;10.90;8.13;;;;;;;30.05;50.90;100773.72;5060592;28;20087;-79
2023/06/11 08:42:13;;;;;;;10.20;7.65;;;;;;;29.52;50.91;100770.81;5060905;28;20478;-79
2023/06/11 08:44:40;;;;;;;9.80;8.18;;;;;;;28.24;52.49;100758.00;5056746;28;20071;-82
2023/06/11 08:47:09;;;;;;;9.18;8.20;;;;;;;29.47;50.51;100762.75;5061502;28;20112;-80
2023/06/11 08:49:40;;;;;;;11.07;7.95;;;;;;;29.46;50.77;100766.53;5058951;28;20447;-81
2023/06/11 08:52:08;;;;;;;9.32;8.30;;;;;;;28.58;52.00;100767.09;5055224;28;20076;-79
2023/06/11 08:54:36;;;;;;;10.10;8.13;;;;;;;28.52;52.22;100761.97;5055619;28;20084;-78
2023/06/11 08:57:07;;;;;;;9.15;8.15;;;;;;;28.65;51.44;100756.84;5054414;28;20108;-79
2023/06/11 08:59:33;;;;;;;9.63;8.63;;;;;;;29.03;51.37;100768.88;5053907;28;20053;-80
2023/06/11 09:02:00;;;;;;;9.40;8.48;;;;;;;29.23;51.68;100768.00;5057403;28;20238;-80
2023/06/11 09:04:33;;;;;;;9.48;8.32;;;;;;;29.22;50.76;100761.00;5058748;28;20077;-81
2023/06/11 09:07:01;;;;;;;11.25;8.20;;;;;;;29.10;50.82;100765.09;5057920;28;20553;-82
2023/06/11 09:09:28;;;;;;;8.55;7.68;;;;;;;28.67;51.06;100754.69;5057909;28;20107;-82
2023/06/11 09:11:56;;;;;;;8.25;7.43;;;;;;;29.29;50.74;100756.09;5057955;28;20045;-80
2023/06/11 09:14:22;;;;;;;8.70;7.80;;;;;;;30.10;49.34;100760.19;5059769;28;20569;-78
2023/06/11 09:16:49;;;;;;;9.98;8.10;;;;;;;29.87;49.37;100760.88;5056401;28;20052;-77
2023/06/11 09:19:16;;;;;;;9.55;8.25;;;;;;;30.23;49.45;100769.53;5052146;28;20179;-79
2023/06/11 09:21:51;;;;;;;8.77;7.93;;;;;;;30.19;49.05;100760.41;5052737;28;20049;-77
2023/06/11 09:24:18;;;;;;;10.75;8.02;;;;;;;29.52;49.88;100757.34;5052997;28;20075;-79
2023/06/11 09:26:51;;;;;;;8.02;7.20;;;;;;;29.19;49.93;100745.38;5053991;28;20041;-77
2023/06/11 09:29:19;;;;;;;9.13;8.10;;;;;;;29.24;49.91;100748.03;5053286;28;20136;-79
2023/06/11 09:31:46;;;;;;;8.20;7.50;;;;;;;29.66;49.46;100750.25;5053282;28;20053;-78
2023/06/11 09:34:16;;;;;;;7.80;6.90;;;;;;;29.31;49.91;100748.53;5044783;28;20040;-78
2023/06/11 09:36:46;;;;;;;8.90;7.30;;;;;;;29.35;49.63;100754.16;5053495;28;20123;-77
2023/06/11 09:39:13;;;;;;;8.38;7.28;;;;;;;29.09;49.94;100760.78;5052898;28;20080;-79
2023/06/11 09:41:47;;;;;;;10.43;7.72;;;;;;;29.10;49.91;100757.81;5060265;28;20052;-80
2023/06/11 09:44:14;;;;;;;8.23;6.93;;;;;;;29.34;48.45;100742.59;5071202;28;20048;-80
2023/06/11 09:46:47;;;;;;;8.10;7.30;;;;;;;29.58;48.46;100736.56;5073558;28;20068;-79
2023/06/11 09:49:15;;;;;;;8.02;7.22;;;;;;;29.96;48.59;100756.50;5073450;28;20149;-81
2023/06/11 09:51:42;;;;;;;7.85;7.15;;;;;;;29.83;48.40;100746.34;5077645;28;20056;-79
2023/06/11 09:54:09;;;;;;;9.63;7.30;;;;;;;30.48;47.54;100745.00;5075202;28;20083;-79
2023/06/11 09:56:36;;;;;;;9.02;6.90;;;;;;;29.69;47.64;100746.19;5074683;28;20041;-79
2023/06/11 09:59:03;;;;;;;7.90;7.07;;;;;;;29.58;47.56;100737.34;5079795;28;20087;-79
2023/06/11 10:01:30;;;;;;;7.57;6.78;;;;;;;28.97;47.44;100736.84;5073864;28;20075;-81
2023/06/11 10:04:01;;;;;;;8.10;7.30;;;;;;;28.90;47.93;100739.00;5079841;28;20049;-80
2023/06/11 10:06:32;;;;;;;10.52;7.50;;;;;;;29.21;47.84;100740.50;5073786;28;20079;-79
2023/06/11 10:09:03;;;;;;;8.38;7.28;;;;;;;29.61;47.44;100744.88;5065005;28;20146;-81
2023/06/11 10:11:38;;;;;;;11.35;7.47;;;;;;;29.97;47.52;100747.31;5061761;28;20163;-78
2023/06/11 10:14:05;;;;;;;8.13;6.85;;;;;;;29.59;46.71;100735.47;5065125;28;20079;-79
2023/06/11 10:16:33;;;;;;;9.48;7.38;;;;;;;29.66;48.04;100750.25;5065184;28;20076;-80
2023/06/11 10:19:10;;;;;;;11.07;7.32;;;;;;;29.34;45.98;100721.00;5064421;28;20041;-83
2023/06/11 10:21:42;;;;;;;8.55;7.72;;;;;;;29.59;46.90;100740.84;5057959;28;20045;-80
2023/06/11 10:24:20;;;;;;;;;;;;;;;29.45;47.86;100742.56;5061127;28;20056;-79
2023/06/11 10:27:07;;;;;;;8.50;7.70;;;;;;;29.54;47.09;100732.81;5058738;28;19960;-79
2023/06/11 10:29:38;;;;;;;11.35;7.35;;;;;;;30.32;45.75;100740.81;5061551;28;20045;-80
2023/06/11 10:32:15;;;;;;;9.63;7.68;;;;;;;29.60;45.70;100696.63;5061291;28;20108;-81
2023/06/11 10:34:44;;;;;;;9.77;7.72;;;;;;;29.76;45.04;100711.63;5062778;28;20388;-79
2023/06/11 10:37:11;;;;;;;10.82;7.60;;;;;;;29.18;43.86;100689.88;5063598;28;20048;-79
2023/06/11 10:39:50;;;;;;;13.05;7.70;;;;;;;30.19;44.64;100733.41;5056885;28;20044;-78
2023/06/11 10:42:23;;;;;;;10.77;8.73;;;;;;;29.87;45.12;100721.22;5057004;28;20053;-79
2023/06/11 10:44:50;;;;;;;9.23;7.85;;;;;;;29.95;45.52;100733.31;5056632;28;20077;-78
2023/06/11 10:47:16;;;;;;;10.13;7.68;;;;;;;30.79;43.72;100723.88;5058326;28;20120;-78
2023/06/11 10:49:46;;;;;;;8.13;7.32;;;;;;;29.76;44.76;100721.59;5062726;28;20079;-79
2023/06/11 10:52:13;;;;;;;10.73;7.80;;;;;;;29.93;44.68;100722.00;5061108;28;20135;-79
2023/06/11 10:54:42;;;;;;;11.18;7.43;;;;;;;29.72;43.83;100710.56;5062340;28;20068;-78
2023/06/11 10:57:10;;;;;;;10.23;7.28;;;;;;;29.46;42.60;100711.81;5059807;28;20045;-79
2023/06/11 10:59:38;;;;;;;8.65;7.57;;;;;;;29.45;42.59;100696.72;5061686;28;20052;-80
2023/06/11 11:02:05;;;;;;;9.75;7.38;;;;;;;29.22;42.98;100717.88;5059760;28;20169;-78
2023/06/11 11:04:32;;;;;;;9.63;7.70;;;;;;;29.78;42.95;100714.81;5063703;28;20041;-81
2023/06/11 11:07:07;;;;;;;11.38;7.35;;;;;;;30.26;42.39;100723.88;5062221;28;20067;-79
2023/06/11 11:09:34;;;;;;;12.05;7.97;;;;;;;29.69;42.94;100713.84;5063261;28;20041;-80
2023/06/11 11:12:02;;;;;;;8.20;7.40;;;;;;;29.47;43.00;100714.25;5064249;28;20083;-80
2023/06/11 11:14:31;;;;;;;8.88;7.30;;;;;;;30.09;43.56;100725.41;5062371;28;20116;-79
2023/06/11 11:17:00;;;;;;;12.07;6.78;;;;;;;29.88;41.13;100714.75;5060519;28;20102;-78
2023/06/11 11:19:27;;;;;;;10.88;7.53;;;;;;;29.61;41.41;100711.72;5057635;28;20075;-80
2023/06/11 11:21:55;;;;;;;10.38;7.18;;;;;;;30.19;41.39;100712.63;5059694;28;20079;-80
2023/06/11 11:24:25;;;;;;;10.45;7.43;;;;;;;30.34;42.19;100711.66;5061312;28;20049;-79
2023/06/11 11:26:55;;;;;;;8.48;7.55;;;;;;;30.02;42.25;100702.25;5061823;28;20045;-78
2023/06/11 11:29:21;;;;;;;10.27;8.25;;;;;;;30.09;42.52;100710.03;5061339;28;20044;-79